Time;durP1;ratioP1;P1;durP2;ratioP2;P2;SDS_P1;SDS_P2;PMS_P1;PMS_P2;Temp;Humidity;BMP_temperature;BMP_pressure;BME280_temperature;BME280_humidity;BME280_pressure;Samples;Min_cycle;Max_cycle;Signal;HPM_P1;HPM_P2
2022/01/20 00:01:39;;;;;;;3.77;1.67;;;5.00;1.00;;;;;;5011746;28;20462;-75
2022/01/20 00:04:16;;;;;;;0.50;0.10;;;4.90;1.00;;;;;;5000047;28;20453;-74
2022/01/20 00:25:49;;;;;;;1.03;0.70;;;5.10;1.00;;;;;;4996489;28;20462;-75
2022/01/20 00:26:41;;;;;;;2.50;0.60;;;5.10;1.00;;;;;;5018558;28;20539;-75
2022/01/20 00:29:16;;;;;;;1.47;1.37;;;5.10;1.00;;;;;;5016130;28;20437;-76
2022/01/20 00:32:00;;;;;;;3.73;2.10;;;5.10;1.00;;;;;;5016817;28;20947;-75
2022/01/20 00:34:52;;;;;;;3.20;2.03;;;5.10;1.00;;;;;;5010681;28;20492;-75
2022/01/20 00:37:19;;;;;;;1.87;0.70;;;5.10;1.00;;;;;;5014841;28;20537;-74
2022/01/20 00:39:47;;;;;;;1.80;1.00;;;5.10;1.00;;;;;;5016044;28;20464;-75
2022/01/20 00:42:16;;;;;;;0.90;0.77;;;5.10;1.00;;;;;;5015226;28;20487;-75
2022/01/20 00:44:44;;;;;;;2.03;1.87;;;5.10;1.00;;;;;;5015007;28;20440;-75
2022/01/20 00:47:17;;;;;;;11.00;2.00;;;5.10;1.00;;;;;;5015761;28;20936;-76
2022/01/20 00:49:46;;;;;;;0.90;0.40;;;5.10;1.00;;;;;;5015677;28;20860;-73
2022/01/20 00:52:14;;;;;;;3.20;1.73;;;5.10;1.00;;;;;;4979636;28;20474;-75
2022/01/20 00:54:42;;;;;;;1.33;1.00;;;5.10;1.00;;;;;;4981001;28;20925;-75
2022/01/20 00:57:10;;;;;;;1.23;0.97;;;5.20;1.00;;;;;;4983685;28;20471;-75
2022/01/20 00:59:38;;;;;;;1.90;1.80;;;5.20;1.00;;;;;;4983292;28;20450;-75
2022/01/20 01:02:08;;;;;;;5.77;2.73;;;5.20;1.00;;;;;;4988742;28;20557;-76
2022/01/20 01:04:39;;;;;;;1.13;1.07;;;5.20;1.00;;;;;;4987421;28;20448;-75
2022/01/20 01:07:26;;;;;;;0.50;0.20;;;5.30;1.00;;;;;;5002983;28;20450;-76
2022/01/20 01:09:54;;;;;;;0.50;0.20;;;5.30;1.00;;;;;;5018795;28;20952;-75
2022/01/20 01:12:31;;;;;;;0.50;0.20;;;;;;;;;;5019627;28;20462;-74
2022/01/20 01:15:01;;;;;;;0.70;0.37;;;5.40;1.00;;;;;;5019647;28;20480;-75
2022/01/20 01:20:19;;;;;;;1.30;1.20;;;5.40;1.00;;;;;;5014549;28;20441;-75
2022/01/20 01:22:47;;;;;;;1.57;0.97;;;5.40;1.00;;;;;;5009831;28;20476;-75
2022/01/20 01:25:15;;;;;;;0.50;0.23;;;5.40;1.00;;;;;;4994515;28;20881;-75
2022/01/20 01:27:45;;;;;;;29.03;3.50;;;5.30;1.00;;;;;;4995909;28;20447;-74
2022/01/20 01:32:57;;;;;;;0.50;0.10;;;5.30;1.00;;;;;;5009221;28;20480;-76
2022/01/20 01:35:27;;;;;;;4.63;0.90;;;5.30;1.00;;;;;;5000111;28;20449;-74
2022/01/20 01:40:55;;;;;;;1.00;0.60;;;5.30;1.00;;;;;;4949130;29;20462;-75
2022/01/20 01:43:26;;;;;;;1.97;0.70;;;5.20;1.00;;;;;;4952347;28;20476;-74
2022/01/20 01:45:54;;;;;;;1.17;0.47;;;5.20;1.00;;;;;;4981296;28;20449;-75
2022/01/20 01:48:22;;;;;;;0.50;0.10;;;5.20;1.00;;;;;;5012910;28;20525;-75
2022/01/20 01:50:51;;;;;;;0.50;0.20;;;5.20;1.00;;;;;;5013314;28;20452;-76
2022/01/20 01:53:20;;;;;;;3.60;0.83;;;5.20;1.00;;;;;;5012804;28;20469;-75
2022/01/20 01:55:48;;;;;;;0.90;0.30;;;5.20;1.00;;;;;;5008369;28;20454;-75
2022/01/20 01:58:16;;;;;;;0.60;0.50;;;5.20;1.00;;;;;;4993557;28;20464;-74
2022/01/20 02:00:44;;;;;;;0.50;0.10;;;5.30;1.00;;;;;;4997776;28;20444;-74
2022/01/20 02:03:14;;;;;;;0.50;0.20;;;5.30;1.00;;;;;;4996795;28;20469;-75
2022/01/20 02:05:57;;;;;;;0.50;0.10;;;5.30;1.00;;;;;;4993749;28;20485;-75
2022/01/20 02:08:36;;;;;;;1.53;0.77;;;5.30;1.00;;;;;;4993320;28;20449;-75
2022/01/20 02:19:23;;;;;;;0.50;0.10;;;5.50;1.00;;;;;;5011164;28;20456;-75
2022/01/20 02:21:54;;;;;;;2.67;2.43;;;5.50;1.00;;;;;;5013141;28;20482;-75
2022/01/20 02:24:23;;;;;;;1.30;1.10;;;5.40;1.00;;;;;;5005366;28;20458;-75
2022/01/20 02:26:51;;;;;;;0.50;0.10;;;5.40;1.00;;;;;;5004297;28;20453;-74
2022/01/20 02:29:19;;;;;;;0.50;0.17;;;5.40;1.00;;;;;;5021851;28;20451;-75
2022/01/20 02:31:47;;;;;;;0.50;0.10;;;5.40;1.00;;;;;;5032490;28;20480;-76
2022/01/20 02:34:17;;;;;;;0.50;0.30;;;5.40;1.00;;;;;;5027274;28;20485;-75
2022/01/20 02:36:46;;;;;;;0.50;0.20;;;5.40;1.00;;;;;;5013839;28;20446;-76
2022/01/20 02:39:31;;;;;;;0.50;0.10;;;5.40;1.00;;;;;;5007894;28;20454;-75
2022/01/20 02:44:53;;;;;;;0.50;0.10;;;5.40;1.00;;;;;;4993522;28;20780;-75
2022/01/20 02:47:23;;;;;;;0.50;0.20;;;5.40;1.00;;;;;;4993549;28;20771;-75
2022/01/20 02:49:51;;;;;;;0.50;0.20;;;6.10;1.00;;;;;;4993856;28;20450;-75
2022/01/20 02:52:21;;;;;;;0.50;0.10;;;5.40;1.00;;;;;;4993204;28;20481;-75
2022/01/20 02:54:51;;;;;;;1.83;1.57;;;5.50;1.00;;;;;;4992962;28;20856;-75
2022/01/20 02:57:19;;;;;;;0.50;0.20;;;5.60;1.00;;;;;;4993088;28;20447;-74
2022/01/20 02:59:47;;;;;;;0.60;0.43;;;5.60;1.00;;;;;;4998346;28;20457;-74
2022/01/20 03:02:15;;;;;;;0.50;0.20;;;5.60;1.00;;;;;;4997202;28;20841;-75
2022/01/20 03:04:44;;;;;;;0.50;0.10;;;5.60;1.00;;;;;;4992806;28;20507;-75
2022/01/20 03:07:12;;;;;;;0.50;0.10;;;5.60;1.00;;;;;;4992026;28;20445;-75
2022/01/20 03:09:40;;;;;;;1.53;0.73;;;5.60;1.00;;;;;;4995264;28;20445;-74
2022/01/20 03:12:10;;;;;;;0.50;0.10;;;5.70;1.00;;;;;;4996335;28;20565;-75
2022/01/20 03:14:38;;;;;;;0.50;0.10;;;5.70;1.00;;;;;;4997634;28;20489;-75
2022/01/20 03:17:06;;;;;;;0.50;0.10;;;5.60;1.00;;;;;;4996572;28;20446;-73
2022/01/20 03:19:34;;;;;;;2.20;1.43;;;5.60;1.00;;;;;;4996809;28;20451;-75
2022/01/20 03:22:02;;;;;;;0.50;0.10;;;5.60;1.00;;;;;;5015357;28;20472;-75
2022/01/20 03:24:30;;;;;;;0.50;0.20;;;5.60;1.00;;;;;;5016173;28;20964;-76
2022/01/20 03:26:58;;;;;;;2.00;1.90;;;5.60;1.00;;;;;;5015818;28;20445;-75
2022/01/20 03:29:27;;;;;;;0.50;0.10;;;5.60;1.00;;;;;;5015990;28;20450;-74
2022/01/20 03:31:55;;;;;;;0.50;0.10;;;5.60;1.00;;;;;;5022818;28;20470;-75
2022/01/20 03:34:23;;;;;;;0.50;0.30;;;5.60;1.00;;;;;;5007678;28;21000;-75
2022/01/20 03:36:52;;;;;;;0.50;0.10;;;5.70;1.00;;;;;;4996429;28;20458;-75
2022/01/20 03:39:21;;;;;;;1.43;0.10;;;5.70;1.00;;;;;;4995983;28;20446;-75
2022/01/20 03:41:49;;;;;;;0.50;0.10;;;5.60;1.00;;;;;;4995561;28;20468;-75
2022/01/20 03:44:17;;;;;;;0.50;0.10;;;5.60;1.00;;;;;;4995962;28;20543;-74
2022/01/20 03:46:46;;;;;;;0.60;0.30;;;5.60;1.00;;;;;;4995738;28;20454;-75
2022/01/20 03:49:26;;;;;;;0.50;0.23;;;5.50;1.00;;;;;;5008713;28;20795;-75
2022/01/20 03:51:55;;;;;;;0.50;0.10;;;5.50;1.00;;;;;;5014789;28;20469;-76
2022/01/20 03:54:26;;;;;;;3.53;3.20;;;5.50;1.00;;;;;;5020269;28;20477;-75
2022/01/20 03:56:54;;;;;;;0.50;0.20;;;5.40;1.00;;;;;;5017716;28;20455;-76
2022/01/20 03:59:22;;;;;;;0.50;0.20;;;5.50;1.00;;;;;;5021218;28;20937;-75
2022/01/20 04:01:51;;;;;;;0.50;0.10;;;5.50;1.00;;;;;;5000856;28;20477;-75
2022/01/20 04:04:19;;;;;;;0.60;0.57;;;5.50;1.00;;;;;;5018024;28;20870;-74
2022/01/20 04:06:48;;;;;;;0.50;0.10;;;5.50;1.00;;;;;;5016588;28;20653;-75
2022/01/20 04:09:16;;;;;;;0.60;0.30;;;5.40;1.00;;;;;;5014529;28;20456;-75
2022/01/20 04:11:44;;;;;;;0.60;0.30;;;5.40;1.00;;;;;;5014969;28;20443;-75
2022/01/20 04:14:13;;;;;;;0.87;0.77;;;5.40;1.00;;;;;;5015139;28;20824;-76
2022/01/20 04:17:00;;;;;;;0.50;0.10;;;5.40;1.00;;;;;;5009796;28;20480;-75
2022/01/20 04:19:30;;;;;;;1.57;1.47;;;5.40;1.00;;;;;;4995039;28;20538;-76
2022/01/20 04:21:59;;;;;;;0.50;0.10;;;5.40;1.00;;;;;;4994707;28;20569;-75
2022/01/20 04:24:27;;;;;;;8.53;2.30;;;5.40;1.00;;;;;;4994067;28;20566;-74
2022/01/20 04:26:55;;;;;;;0.50;0.10;;;5.30;1.00;;;;;;4994922;28;20450;-75
2022/01/20 04:29:23;;;;;;;0.93;0.73;;;5.30;1.00;;;;;;4994420;28;20991;-75
2022/01/20 04:31:51;;;;;;;0.50;0.20;;;5.20;1.00;;;;;;4994822;28;20468;-76
2022/01/20 04:34:19;;;;;;;1.07;0.70;;;6.40;1.00;;;;;;5000380;28;20447;-75
2022/01/20 04:36:51;;;;;;;0.77;0.30;;;5.20;1.00;;;;;;4997695;28;21003;-75
2022/01/20 04:39:23;;;;;;;0.70;0.20;;;5.20;1.00;;;;;;4994418;28;20450;-74
2022/01/20 04:41:52;;;;;;;1.83;1.37;;;5.20;1.00;;;;;;4994361;28;20473;-75
2022/01/20 04:44:32;;;;;;;0.50;0.10;;;5.20;1.00;;;;;;4999795;28;20452;-75
2022/01/20 04:47:10;;;;;;;0.50;0.10;;;5.20;1.00;;;;;;5014027;28;20469;-75
2022/01/20 04:57:56;;;;;;;5.60;1.47;;;5.10;1.00;;;;;;5004733;28;20965;-76
2022/01/20 05:00:24;;;;;;;3.30;3.10;;;5.10;1.00;;;;;;5008901;28;20449;-77
2022/01/20 05:02:52;;;;;;;1.10;0.40;;;5.10;1.00;;;;;;4997499;28;20501;-74
2022/01/20 05:05:19;;;;;;;0.83;0.70;;;5.00;1.00;;;;;;5003326;28;20457;-74
2022/01/20 05:07:49;;;;;;;0.50;0.10;;;5.00;1.00;;;;;;5002397;28;20451;-75
2022/01/20 05:10:17;;;;;;;0.70;0.57;;;5.00;1.00;;;;;;5005149;28;20446;-75
2022/01/20 05:13:08;;;;;;;1.33;1.07;;;5.10;1.00;;;;;;5018807;28;20967;-75
2022/01/20 05:15:36;;;;;;;0.50;0.20;;;5.10;1.00;;;;;;5023228;28;20478;-74
2022/01/20 05:18:04;;;;;;;1.90;0.40;;;5.10;1.00;;;;;;5015163;28;20651;-75
2022/01/20 05:20:32;;;;;;;0.50;0.20;;;5.10;1.00;;;;;;5014639;28;20539;-76
2022/01/20 05:23:01;;;;;;;0.90;0.80;;;5.10;1.00;;;;;;5013338;28;20552;-75
2022/01/20 05:25:29;;;;;;;0.50;0.10;;;5.10;1.00;;;;;;5013048;28;20473;-74
2022/01/20 05:27:57;;;;;;;0.50;0.17;;;5.10;1.00;;;;;;5014706;28;20447;-74
2022/01/20 05:30:25;;;;;;;1.20;1.10;;;5.10;1.00;;;;;;5008994;28;20863;-75
2022/01/20 05:32:53;;;;;;;0.50;0.20;;;5.10;1.00;;;;;;5004762;28;20561;-76
2022/01/20 05:35:21;;;;;;;5.33;0.73;;;5.00;1.00;;;;;;5004302;28;20842;-76
2022/01/20 05:37:49;;;;;;;0.67;0.20;;;5.10;1.00;;;;;;5012507;28;20464;-74
2022/01/20 05:40:18;;;;;;;0.50;0.10;;;5.10;1.00;;;;;;5012969;28;20446;-75
2022/01/20 05:42:46;;;;;;;1.27;0.70;;;5.10;1.00;;;;;;5012786;28;20477;-75
2022/01/20 05:45:14;;;;;;;0.50;0.20;;;5.00;1.00;;;;;;5012419;28;20771;-75
2022/01/20 05:47:58;;;;;;;;;;;;;;;;;;;;;
2022/01/20 05:50:49;;;;;;;2.20;0.60;;;;;;;;;;4970333;28;20860;-75
2022/01/20 05:53:16;;;;;;;0.50;0.10;;;4.90;1.00;;;;;;5003172;28;20482;-74
2022/01/20 05:55:46;;;;;;;6.83;2.30;;;4.90;1.00;;;;;;5009424;28;20469;-75
2022/01/20 05:58:13;;;;;;;6.03;1.60;;;4.90;1.00;;;;;;5014137;28;20449;-75
2022/01/20 06:00:42;;;;;;;0.50;0.20;;;4.90;1.00;;;;;;5007976;28;20452;-75
2022/01/20 06:05:56;;;;;;;0.50;0.10;;;5.00;1.00;;;;;;5024650;28;20447;-74
2022/01/20 06:08:24;;;;;;;0.50;0.20;;;5.00;1.00;;;;;;5021287;28;20841;-74
2022/01/20 06:10:53;;;;;;;0.50;0.10;;;5.00;1.00;;;;;;5027176;28;20441;-76
2022/01/20 06:13:21;;;;;;;0.50;0.10;;;5.00;1.00;;;;;;5015259;28;20544;-76
2022/01/20 06:15:49;;;;;;;1.90;0.67;;;5.10;1.00;;;;;;4996287;28;20487;-75
2022/01/20 06:18:19;;;;;;;0.50;0.10;;;5.20;1.00;;;;;;5012049;28;20453;-75
2022/01/20 06:20:48;;;;;;;0.50;0.10;;;5.20;1.00;;;;;;5018072;28;20472;-74
2022/01/20 06:23:17;;;;;;;0.50;0.30;;;5.20;1.00;;;;;;4994004;28;20473;-74
2022/01/20 06:25:45;;;;;;;2.70;0.90;;;5.10;1.00;;;;;;4983799;28;20457;-74
2022/01/20 06:28:16;;;;;;;0.50;0.10;;;5.20;1.00;;;;;;4997710;28;20463;-76
2022/01/20 06:30:47;;;;;;;4.40;1.30;;;5.00;1.00;;;;;;5000040;28;20492;-75
2022/01/20 06:33:16;;;;;;;0.60;0.40;;;5.00;1.00;;;;;;5011105;28;20479;-75
2022/01/20 06:35:44;;;;;;;0.50;0.20;;;4.90;1.00;;;;;;5006871;28;20442;-74
2022/01/20 06:38:12;;;;;;;2.13;1.93;;;4.90;1.00;;;;;;4994072;28;20460;-75
2022/01/20 06:40:40;;;;;;;0.60;0.40;;;4.90;1.00;;;;;;4998991;28;20946;-74
2022/01/20 06:43:08;;;;;;;0.50;0.20;;;4.90;1.00;;;;;;5006929;28;20483;-75
2022/01/20 06:45:38;;;;;;;0.90;0.73;;;4.80;1.00;;;;;;5019487;28;20452;-75
2022/01/20 06:48:06;;;;;;;7.60;1.70;;;4.80;1.00;;;;;;5016502;28;20467;-75
2022/01/20 06:50:34;;;;;;;0.80;0.30;;;4.80;1.00;;;;;;5017867;28;20466;-75
2022/01/20 06:53:02;;;;;;;2.37;2.20;;;4.70;1.00;;;;;;5008904;28;20859;-74
2022/01/20 06:55:30;;;;;;;0.80;0.27;;;4.80;1.00;;;;;;5002645;28;20453;-74
2022/01/20 06:57:58;;;;;;;5.53;0.60;;;4.70;1.00;;;;;;4994939;28;21091;-76
2022/01/20 07:00:26;;;;;;;0.50;0.10;;;4.70;1.00;;;;;;5007725;28;20475;-76
2022/01/20 07:02:55;;;;;;;1.17;1.03;;;4.70;1.00;;;;;;5015807;28;20479;-75
2022/01/20 07:05:24;;;;;;;1.90;1.43;;;4.70;1.00;;;;;;4997755;28;20451;-76
2022/01/20 07:07:52;;;;;;;0.90;0.50;;;4.70;1.00;;;;;;4994212;28;20443;-75
2022/01/20 07:10:21;;;;;;;0.50;0.20;;;4.70;1.00;;;;;;4995908;28;20452;-76
2022/01/20 07:12:50;;;;;;;0.50;0.10;;;4.70;1.00;;;;;;4996181;28;20504;-76
2022/01/20 07:15:19;;;;;;;0.73;0.37;;;4.80;1.00;;;;;;5007446;28;20450;-75
2022/01/20 07:17:47;;;;;;;1.87;1.07;;;4.80;1.00;;;;;;5002369;28;20491;-76
2022/01/20 07:20:16;;;;;;;1.80;0.57;;;4.80;1.00;;;;;;5002736;28;20472;-75
2022/01/20 07:22:44;;;;;;;5.60;1.07;;;4.90;1.00;;;;;;5012444;28;20544;-76
2022/01/20 07:25:14;;;;;;;1.10;0.93;;;4.80;1.00;;;;;;5008990;28;20455;-74
2022/01/20 07:27:41;;;;;;;41.27;2.20;;;4.80;1.00;;;;;;5005620;28;20444;-74
2022/01/20 07:30:27;;;;;;;1.00;0.50;;;4.80;1.00;;;;;;5011878;28;20446;-74
2022/01/20 07:32:55;;;;;;;0.60;0.50;;;4.80;1.00;;;;;;5005088;28;20466;-76
2022/01/20 07:35:25;;;;;;;0.70;0.47;;;4.80;1.00;;;;;;5014934;28;20530;-76
2022/01/20 07:37:53;;;;;;;0.80;0.57;;;4.80;1.00;;;;;;5017094;28;20491;-75
2022/01/20 07:40:21;;;;;;;0.80;0.37;;;4.70;1.00;;;;;;5016222;28;20814;-76
2022/01/20 07:42:49;;;;;;;1.17;0.83;;;4.70;1.00;;;;;;5009247;28;20991;-76
2022/01/20 07:45:19;;;;;;;0.50;0.10;;;4.60;1.00;;;;;;5006913;28;20441;-75
2022/01/20 07:47:47;;;;;;;0.50;0.10;;;4.60;1.00;;;;;;5003748;28;20805;-74
2022/01/20 07:50:15;;;;;;;0.50;0.10;;;4.60;1.00;;;;;;5001086;28;20431;-75
2022/01/20 07:52:45;;;;;;;0.50;0.10;;;4.70;1.00;;;;;;5014948;28;20464;-76
2022/01/20 07:55:13;;;;;;;0.90;0.80;;;4.70;1.00;;;;;;5014878;28;20444;-74
2022/01/20 07:57:40;;;;;;;0.83;0.83;;;4.70;1.00;;;;;;5013808;28;20476;-76
2022/01/20 08:00:10;;;;;;;1.80;1.70;;;4.70;1.00;;;;;;4995936;28;20455;-75
2022/01/20 08:02:37;;;;;;;0.50;0.10;;;4.80;1.00;;;;;;4995302;28;20477;-73
2022/01/20 08:05:06;;;;;;;9.30;1.13;;;4.70;1.00;;;;;;4997508;28;20455;-74
2022/01/20 08:07:34;;;;;;;1.03;0.70;;;4.70;1.00;;;;;;4997456;28;20456;-76
2022/01/20 08:10:04;;;;;;;0.97;0.83;;;4.70;1.00;;;;;;4997456;28;20480;-74
2022/01/20 08:12:33;;;;;;;3.63;2.03;;;4.60;1.00;;;;;;5009092;28;20470;-76
2022/01/20 08:15:01;;;;;;;2.10;0.67;;;4.60;1.00;;;;;;5019402;28;20453;-74
2022/01/20 08:17:29;;;;;;;0.83;0.57;;;4.60;1.00;;;;;;5014861;28;20511;-73
2022/01/20 08:19:58;;;;;;;0.50;0.23;;;4.50;1.00;;;;;;5014012;28;20452;-75
2022/01/20 08:22:28;;;;;;;0.57;0.30;;;4.50;1.00;;;;;;5006553;28;20492;-76
2022/01/20 08:25:05;;;;;;;2.27;2.10;;;4.50;1.00;;;;;;5008830;28;20936;-73
2022/01/20 08:27:33;;;;;;;0.83;0.30;;;4.50;1.00;;;;;;5009052;28;20475;-74
2022/01/20 08:30:01;;;;;;;1.67;0.40;;;4.50;1.00;;;;;;5018657;28;20445;-76
2022/01/20 08:32:29;;;;;;;0.50;0.10;;;4.50;1.00;;;;;;5010004;28;20926;-73
2022/01/20 08:34:57;;;;;;;12.00;2.03;;;4.50;1.00;;;;;;4999529;28;20490;-74
2022/01/20 08:37:25;;;;;;;1.73;1.63;;;4.60;1.00;;;;;;5009628;28;20480;-76
2022/01/20 08:39:56;;;;;;;0.63;0.60;;;4.60;1.00;;;;;;5014061;28;20945;-74
2022/01/20 08:42:26;;;;;;;3.30;1.27;;;4.60;1.00;;;;;;5013591;28;20488;-76
2022/01/20 08:44:53;;;;;;;2.97;2.20;;;4.60;1.00;;;;;;4995650;28;20453;-73
2022/01/20 08:47:21;;;;;;;1.00;0.40;;;4.60;1.00;;;;;;4996170;28;20452;-73
2022/01/20 08:49:50;;;;;;;1.83;0.30;;;4.70;1.00;;;;;;5014006;28;20442;-75
2022/01/20 08:52:21;;;;;;;0.60;0.40;;;4.80;1.00;;;;;;4996948;28;20497;-76
2022/01/20 08:54:50;;;;;;;5.03;1.90;;;4.80;1.00;;;;;;4993997;28;20530;-75
2022/01/20 08:57:18;;;;;;;0.50;0.10;;;4.90;1.00;;;;;;4993973;28;20561;-75
2022/01/20 08:59:47;;;;;;;0.50;0.10;;;4.90;1.00;;;;;;5001745;28;20451;-75
2022/01/20 09:02:15;;;;;;;0.50;0.10;;;4.90;1.00;;;;;;5000324;28;20608;-74
2022/01/20 09:04:43;;;;;;;0.50;0.10;;;4.90;1.00;;;;;;4996730;28;20479;-74
2022/01/20 09:07:11;;;;;;;0.50;0.10;;;5.10;1.00;;;;;;4993014;28;20545;-76
2022/01/20 09:09:43;;;;;;;0.50;0.20;;;5.10;1.00;;;;;;4993852;28;20454;-76
2022/01/20 09:15:27;;;;;;;0.50;0.10;;;5.20;1.00;;;;;;4993062;28;20475;-76
2022/01/20 09:15:28;;;;;;;0.60;0.37;;;5.20;1.00;;;;;;4991660;28;20868;-76
2022/01/20 09:17:57;;;;;;;0.50;0.10;;;5.30;1.00;;;;;;4993339;28;20492;-74
2022/01/20 09:20:25;;;;;;;0.50;0.10;;;5.40;1.00;;;;;;4993064;28;20446;-76
2022/01/20 09:22:55;;;;;;;0.50;0.10;;;5.50;1.00;;;;;;4997346;28;20520;-75
2022/01/20 09:25:25;;;;;;;0.60;0.37;;;5.50;1.00;;;;;;4991351;28;20447;-76
2022/01/20 09:27:55;;;;;;;1.67;1.03;;;5.50;1.00;;;;;;4994280;28;20440;-74
2022/01/20 09:30:26;;;;;;;0.50;0.10;;;5.40;1.00;;;;;;4997253;28;20539;-75
2022/01/20 09:33:01;;;;;;;5.10;2.53;;;5.50;1.00;;;;;;5001235;28;21013;-76
2022/01/20 09:35:31;;;;;;;0.50;0.10;;;5.50;1.00;;;;;;4997643;28;20462;-73
2022/01/20 09:38:00;;;;;;;0.50;0.20;;;5.60;1.00;;;;;;4996420;28;20545;-74
2022/01/20 09:40:30;;;;;;;0.50;0.10;;;5.70;1.00;;;;;;4995029;28;20460;-73
2022/01/20 09:42:57;;;;;;;0.83;0.83;;;5.70;1.00;;;;;;4994066;28;20478;-74
2022/01/20 09:45:28;;;;;;;0.63;0.20;;;5.80;1.00;;;;;;4994056;28;20447;-74
2022/01/20 09:47:56;;;;;;;0.50;0.20;;;5.80;1.00;;;;;;4996582;28;20490;-73
2022/01/20 09:50:25;;;;;;;0.50;0.10;;;5.80;1.00;;;;;;5001905;28;20455;-73
2022/01/20 09:52:57;;;;;;;0.50;0.10;;;5.80;1.00;;;;;;4997189;28;20471;-73
2022/01/20 09:55:24;;;;;;;0.50;0.20;;;5.80;1.00;;;;;;4995339;28;20462;-74
2022/01/20 09:57:52;;;;;;;0.50;0.10;;;5.80;1.00;;;;;;4998122;28;20565;-72
2022/01/20 10:00:21;;;;;;;0.60;0.30;;;5.90;1.00;;;;;;4995584;28;20461;-73
2022/01/20 10:02:59;;;;;;;0.50;0.20;;;5.90;1.00;;;;;;4996009;28;20473;-73
2022/01/20 10:05:32;;;;;;;3.13;0.87;;;5.90;1.00;;;;;;4993946;28;20444;-74
2022/01/20 10:08:13;;;;;;;0.60;0.27;;;6.00;1.00;;;;;;4992971;28;20449;-75
2022/01/20 10:10:47;;;;;;;0.50;0.10;;;6.00;1.00;;;;;;4985799;28;20475;-73
2022/01/20 10:13:17;;;;;;;0.80;0.20;;;6.00;1.00;;;;;;5013780;28;20557;-73
2022/01/20 10:15:56;;;;;;;1.40;0.60;;;6.00;1.00;;;;;;5013117;28;20932;-73
2022/01/20 10:18:25;;;;;;;0.50;0.10;;;6.00;1.00;;;;;;5014618;28;20485;-73
2022/01/20 10:20:55;;;;;;;0.50;0.10;;;6.00;1.00;;;;;;5017405;28;20449;-75
2022/01/20 10:23:38;;;;;;;0.50;0.10;;;5.90;1.00;;;;;;5017240;28;20493;-74
2022/01/20 10:26:17;;;;;;;0.50;0.10;;;5.90;1.00;;;;;;5015818;28;20437;-74
2022/01/20 10:28:56;;;;;;;0.70;0.70;;;5.90;1.00;;;;;;4996732;28;20455;-74
2022/01/20 10:31:40;;;;;;;0.50;0.10;;;6.00;1.00;;;;;;4997192;28;20460;-73
2022/01/20 10:34:21;;;;;;;5.77;4.00;;;6.00;1.00;;;;;;5000669;28;20453;-75
2022/01/20 10:36:53;;;;;;;0.50;0.10;;;6.10;1.00;;;;;;5003410;28;20449;-72
2022/01/20 10:39:28;;;;;;;0.50;0.10;;;6.10;1.00;;;;;;4997341;28;20483;-74
2022/01/20 10:42:01;;;;;;;0.50;0.20;;;6.10;1.00;;;;;;5003580;28;21463;-74
2022/01/20 10:44:40;;;;;;;0.50;0.10;;;6.10;1.00;;;;;;5002986;28;20460;-73
2022/01/20 10:47:24;;;;;;;4.40;1.07;;;6.10;1.00;;;;;;5003568;28;20446;-73
2022/01/20 10:49:54;;;;;;;0.50;0.10;;;6.00;1.00;;;;;;4997018;28;20436;-75
2022/01/20 10:52:24;;;;;;;0.50;0.10;;;6.00;1.00;;;;;;4999613;28;20481;-73
2022/01/20 10:54:54;;;;;;;0.50;0.10;;;6.00;1.00;;;;;;5007507;28;20447;-73
2022/01/20 10:57:28;;;;;;;0.50;0.10;;;6.10;1.00;;;;;;5015829;28;20575;-74
2022/01/20 10:59:57;;;;;;;0.50;0.10;;;6.20;1.00;;;;;;5013810;28;20834;-77
2022/01/20 11:02:29;;;;;;;3.60;1.10;;;6.20;1.00;;;;;;5015673;28;20469;-75
2022/01/20 11:04:59;;;;;;;0.50;0.10;;;6.20;1.00;;;;;;5015698;28;20943;-73
2022/01/20 11:07:28;;;;;;;0.50;0.20;;;6.20;1.00;;;;;;5015521;28;20450;-73
2022/01/20 11:10:01;;;;;;;1.10;0.47;;;6.10;1.00;;;;;;5015674;28;20442;-75
2022/01/20 11:12:30;;;;;;;0.50;0.10;;;6.00;1.00;;;;;;5014555;28;20461;-74
2022/01/20 11:15:06;;;;;;;0.50;0.23;;;5.90;1.00;;;;;;5000418;28;20449;-75
2022/01/20 11:17:35;;;;;;;0.60;0.30;;;5.90;1.00;;;;;;4996748;28;20446;-74
2022/01/20 11:20:10;;;;;;;2.40;0.40;;;6.00;1.00;;;;;;4994661;28;20540;-74
2022/01/20 11:22:39;;;;;;;0.50;0.10;;;5.90;1.00;;;;;;4987702;28;20912;-75
2022/01/20 11:25:10;;;;;;;0.70;0.40;;;5.80;1.00;;;;;;4984756;28;20457;-76
2022/01/20 11:27:41;;;;;;;0.50;0.10;;;5.90;1.00;;;;;;4981992;28;20455;-74
2022/01/20 11:30:17;;;;;;;0.50;0.20;;;6.00;1.00;;;;;;4994257;28;20443;-74
2022/01/20 11:32:58;;;;;;;3.07;1.30;;;6.10;1.00;;;;;;4996185;28;20478;-74
2022/01/20 11:35:39;;;;;;;2.77;1.13;;;6.20;1.00;;;;;;4996424;28;20479;-74
2022/01/20 11:38:07;;;;;;;0.90;0.30;;;6.20;1.00;;;;;;4999752;28;20428;-75
2022/01/20 11:40:47;;;;;;;0.60;0.23;;;6.20;1.00;;;;;;5002408;28;20488;-74
2022/01/20 11:43:15;;;;;;;2.20;0.73;;;6.20;1.00;;;;;;5000817;28;20483;-75
2022/01/20 11:45:46;;;;;;;0.60;0.20;;;6.30;99.90;;;;;;4997880;28;20450;-75
2022/01/20 11:48:16;;;;;;;2.63;1.90;;;6.30;99.90;;;;;;4976551;28;20495;-78
2022/01/20 11:50:46;;;;;;;0.50;0.10;;;6.20;99.90;;;;;;4977518;28;20451;-73
2022/01/20 11:53:16;;;;;;;0.80;0.40;;;6.30;99.90;;;;;;4989792;28;20551;-73
2022/01/20 11:55:50;;;;;;;1.07;0.93;;;6.90;99.90;;;;;;4995712;28;20541;-73
2022/01/20 11:58:21;;;;;;;0.60;0.10;;;6.30;99.90;;;;;;4995401;28;20977;-74
2022/01/20 12:00:58;;;;;;;5.70;1.63;;;6.20;99.90;;;;;;4995757;28;20450;-75
2022/01/20 12:03:27;;;;;;;0.60;0.10;;;6.80;99.90;;;;;;5009749;28;20477;-74
2022/01/20 12:06:02;;;;;;;0.60;0.10;;;6.20;99.90;;;;;;5014679;28;20451;-74
2022/01/20 12:08:30;;;;;;;0.60;0.10;;;6.20;99.90;;;;;;5000943;28;20473;-73
2022/01/20 12:10:59;;;;;;;0.60;0.20;;;6.30;99.90;;;;;;5012720;28;20453;-74
2022/01/20 12:13:27;;;;;;;0.63;0.30;;;6.30;99.90;;;;;;5010536;28;20474;-74
2022/01/20 12:15:57;;;;;;;0.60;0.10;;;6.20;99.90;;;;;;5007786;28;20553;-74
2022/01/20 12:18:26;;;;;;;0.60;0.10;;;6.10;99.90;;;;;;5009823;28;20599;-75
2022/01/20 12:20:54;;;;;;;0.70;0.30;;;6.00;99.90;;;;;;5010909;28;20510;-75
2022/01/20 12:23:24;;;;;;;0.60;0.10;;;5.90;99.90;;;;;;5006965;28;20884;-74
2022/01/20 12:25:52;;;;;;;0.60;0.10;;;5.90;99.90;;;;;;5014348;28;20866;-72
2022/01/20 12:28:20;;;;;;;0.60;0.10;;;5.90;99.90;;;;;;5014179;28;20480;-75
2022/01/20 12:30:49;;;;;;;0.57;0.10;;;5.80;99.90;;;;;;5013524;28;20438;-73
2022/01/20 12:33:23;;;;;;;0.57;0.10;;;5.80;1.00;;;;;;5011064;28;20487;-75
2022/01/20 12:35:53;;;;;;;0.60;0.10;;;5.80;1.00;;;;;;5006896;28;20453;-74
2022/01/20 12:38:25;;;;;;;0.57;0.10;;;5.80;1.00;;;;;;5014108;28;20441;-75
2022/01/20 12:41:05;;;;;;;0.50;0.10;;;5.80;1.00;;;;;;5012961;28;20870;-74
2022/01/20 12:43:38;;;;;;;0.60;0.10;;;5.80;1.00;;;;;;5005971;28;20490;-74
2022/01/20 12:46:07;;;;;;;0.50;0.10;;;5.80;1.00;;;;;;4982689;28;20447;-74
2022/01/20 12:48:35;;;;;;;0.60;0.30;;;5.90;1.00;;;;;;4998098;28;20505;-73
2022/01/20 12:51:06;;;;;;;0.60;0.10;;;5.90;1.00;;;;;;4994123;28;20446;-73
2022/01/20 12:53:39;;;;;;;0.50;0.10;;;5.70;1.00;;;;;;4995971;28;20585;-74
2022/01/20 12:56:09;;;;;;;0.50;0.20;;;5.70;1.00;;;;;;4974612;28;20454;-74
2022/01/20 12:58:51;;;;;;;0.50;0.10;;;5.70;1.00;;;;;;4974942;28;20490;-74
2022/01/20 13:01:27;;;;;;;0.60;0.30;;;5.70;1.00;;;;;;4974724;28;20861;-75
2022/01/20 13:03:59;;;;;;;2.60;0.40;;;5.70;1.00;;;;;;4976033;28;20446;-74
2022/01/20 13:06:28;;;;;;;0.50;0.10;;;5.80;1.00;;;;;;4977857;28;20456;-75
2022/01/20 13:09:00;;;;;;;0.50;0.10;;;5.70;1.00;;;;;;4984581;28;20459;-76
2022/01/20 13:11:35;;;;;;;0.80;0.40;;;5.60;1.00;;;;;;4993383;28;20549;-73
2022/01/20 13:14:04;;;;;;;0.60;0.20;;;5.60;1.00;;;;;;4994026;28;20504;-74
2022/01/20 13:16:32;;;;;;;0.60;0.40;;;5.60;1.00;;;;;;4998377;28;20969;-75
2022/01/20 13:19:03;;;;;;;0.50;0.10;;;5.50;1.00;;;;;;5003378;28;20450;-74
2022/01/20 13:21:36;;;;;;;0.50;0.10;;;5.40;1.00;;;;;;5007233;28;20478;-75
2022/01/20 13:24:07;;;;;;;0.50;0.10;;;5.40;1.00;;;;;;5013439;28;20513;-74
2022/01/20 13:26:47;;;;;;;0.60;0.20;;;5.40;1.00;;;;;;5017797;28;20442;-75
2022/01/20 13:29:14;;;;;;;2.10;2.00;;;5.30;1.00;;;;;;4993516;28;20543;-75
2022/01/20 13:31:42;;;;;;;0.50;0.10;;;5.40;1.00;;;;;;5005774;28;20451;-74
2022/01/20 13:34:12;;;;;;;0.50;0.10;;;5.40;1.00;;;;;;4982946;28;20547;-75
2022/01/20 13:36:41;;;;;;;0.50;0.10;;;5.50;1.00;;;;;;5000154;28;20454;-74
2022/01/20 13:39:11;;;;;;;0.60;0.10;;;5.60;1.00;;;;;;5011340;28;20469;-75
2022/01/20 13:41:41;;;;;;;0.50;0.10;;;5.80;1.00;;;;;;5017956;28;20477;-75
2022/01/20 13:47:10;;;;;;;0.70;0.53;;;5.80;1.00;;;;;;4998462;28;20526;-75
2022/01/20 13:49:49;;;;;;;0.50;0.10;;;5.90;1.00;;;;;;4998689;28;20454;-75
2022/01/20 13:52:19;;;;;;;0.53;0.27;;;6.00;1.00;;;;;;4994619;28;20529;-75
2022/01/20 13:54:50;;;;;;;0.60;0.20;;;6.10;1.00;;;;;;5007943;28;20456;-73
2022/01/20 13:57:39;;;;;;;0.80;0.40;;;6.10;1.00;;;;;;5014465;28;20473;-74
2022/01/20 14:00:10;;;;;;;0.60;0.20;;;6.10;99.90;;;;;;5012051;28;21083;-73
2022/01/20 14:02:39;;;;;;;0.60;0.10;;;5.90;99.90;;;;;;5012723;28;20516;-74
2022/01/20 14:05:08;;;;;;;0.60;0.20;;;5.80;99.90;;;;;;5012126;28;20457;-73
2022/01/20 14:07:36;;;;;;;0.60;0.20;;;5.70;1.00;;;;;;5012351;28;20456;-74
2022/01/20 14:10:06;;;;;;;0.60;0.10;;;5.50;1.00;;;;;;5010653;28;20455;-74
2022/01/20 14:12:34;;;;;;;0.80;0.47;;;5.70;1.00;;;;;;4993052;28;20469;-73
2022/01/20 14:15:02;;;;;;;0.60;0.10;;;5.50;1.00;;;;;;4993702;28;20434;-75
2022/01/20 14:17:35;;;;;;;0.70;0.30;;;5.40;1.00;;;;;;4988970;28;20464;-75